KPSF/PSF METAR and TAF weather

Enter ICAO airport designator
Station Type Date Time Source
KPSF METAR 2019/10/23 02:54 UTC NOAA

KPSF 230254Z AUTO 04004KT 7SM -RA OVC011 11/09 A2986 RMK AO2 SLP100 P0006 60017 T01110094 58019


Station Type Date Time Source
KPSF Decoded METAR 2019/10/23 02:54 UTC NOAA

PITTSFIELD MUNICIPAL AIRPORT , MA, United States (KPSF) 42-26N 073-17W 355M
Oct 22, 2019 - 10:54 PM EDT / 2019.10.23 0254 UTC
Wind: from the NE (040 degrees) at 5 MPH (4 KT):0
Visibility: 7 mile(s):0
Sky conditions: overcast
Weather: light rain
Precipitation last hour: 0.06 inches
Temperature: 52.0 F (11.1 C)
Dew Point: 48.9 F (9.4 C)
Relative Humidity: 89%
Pressure (altimeter): 29.86 in. Hg (1011 hPa)
Pressure tendency: 0.06 inches (1.9 hPa) lower than three hours ago
ob: KPSF 230254Z AUTO 04004KT 7SM -RA OVC011 11/09 A2986 RMK AO2 SLP100 P0006 60017 T01110094 58019
cycle: 3

Station Type Date Time Source
KPSF TAF 2019/10/23 03:09 UTC NOAA

TAF
AMD KPSF 230308Z 2303/2324 VRB06KT 6SM -RA BR OVC010 WS020/15040KT
TEMPO 2303/2305 5SM -RA BR BKN008
FM230500 11005KT 2SM -RA BR OVC006 WS020/15040KT
FM231000 29006KT 4SM BR VCSH OVC009
FM231400 28012G20KT P6SM BKN035

Example: see airport list